Casnovia, Michigan
Current Conditions -  °F | °C
As of 4:34 PM on Friday 31 Oct 2014 (Local Time) from KFFX Reporting Station
Overcast Overcast  
Wind Chill: 25°   Ceiling: 3100
Heat Index: 35°   Visibility: 10mi
Dew Point: 24°   Wind: 15mph
Humidity: 66%   Direction: 20°NNE
Pressure: 30.17"   Gusts: 26mph
Location:  43.23°N, 85.79°W
Report Text: KFFX 312034Z AUTO 02013G23KT 10SM OVC031 02/M04 A3017 RMK AO2 T00151042
Loading
Personal Weather Stations






























Interactive Weather Map
Tropical Storm Tracking
New forecast layout! Learn more

10-Day Weather Forecast

Advertisements
Track Severe Weather on mobile